sensor_id;sensor_type;location;lat;lon;timestamp;P1;durP1;ratioP1;P2;durP2;ratioP2
29370;SDS011;16357;52.188;7.838;2024-03-06T00:00:21;46.38;;;29.33;;
29370;SDS011;16357;52.188;7.838;2024-03-06T00:02:49;41.63;;;28.48;;
29370;SDS011;16357;52.188;7.838;2024-03-06T00:05:15;45.88;;;30.75;;
29370;SDS011;16357;52.188;7.838;2024-03-06T00:07:42;46.35;;;32.28;;
29370;SDS011;16357;52.188;7.838;2024-03-06T00:10:08;51.72;;;32.83;;
29370;SDS011;16357;52.188;7.838;2024-03-06T00:12:35;52.55;;;32.97;;
29370;SDS011;16357;52.188;7.838;2024-03-06T00:15:01;50.45;;;33.28;;
29370;SDS011;16357;52.188;7.838;2024-03-06T00:17:28;52.28;;;32.67;;
29370;SDS011;16357;52.188;7.838;2024-03-06T00:19:55;50.78;;;33.95;;
29370;SDS011;16357;52.188;7.838;2024-03-06T00:22:21;52.97;;;34.03;;
29370;SDS011;16357;52.188;7.838;2024-03-06T00:24:49;52.83;;;33.92;;
29370;SDS011;16357;52.188;7.838;2024-03-06T00:27:16;52.67;;;34.75;;
29370;SDS011;16357;52.188;7.838;2024-03-06T00:29:43;50.53;;;34.78;;
29370;SDS011;16357;52.188;7.838;2024-03-06T00:32:09;55.80;;;34.35;;
29370;SDS011;16357;52.188;7.838;2024-03-06T00:34:36;49.45;;;32.85;;
29370;SDS011;16357;52.188;7.838;2024-03-06T00:37:03;52.65;;;33.72;;
29370;SDS011;16357;52.188;7.838;2024-03-06T00:39:29;50.83;;;33.97;;
29370;SDS011;16357;52.188;7.838;2024-03-06T00:41:56;50.85;;;34.38;;
29370;SDS011;16357;52.188;7.838;2024-03-06T00:44:22;51.60;;;33.47;;
29370;SDS011;16357;52.188;7.838;2024-03-06T00:46:49;52.95;;;34.55;;
29370;SDS011;16357;52.188;7.838;2024-03-06T00:49:15;51.38;;;33.33;;
29370;SDS011;16357;52.188;7.838;2024-03-06T00:51:42;50.05;;;33.67;;
29370;SDS011;16357;52.188;7.838;2024-03-06T00:54:14;47.35;;;32.28;;
29370;SDS011;16357;52.188;7.838;2024-03-06T00:56:41;47.25;;;31.60;;
29370;SDS011;16357;52.188;7.838;2024-03-06T00:59:07;47.58;;;32.78;;
29370;SDS011;16357;52.188;7.838;2024-03-06T01:01:34;44.50;;;30.63;;
29370;SDS011;16357;52.188;7.838;2024-03-06T01:04:00;45.00;;;31.02;;
29370;SDS011;16357;52.188;7.838;2024-03-06T01:06:27;45.72;;;31.95;;
29370;SDS011;16357;52.188;7.838;2024-03-06T01:08:54;50.13;;;33.33;;
29370;SDS011;16357;52.188;7.838;2024-03-06T01:11:20;50.05;;;33.50;;
29370;SDS011;16357;52.188;7.838;2024-03-06T01:13:47;56.08;;;34.90;;
29370;SDS011;16357;52.188;7.838;2024-03-06T01:16:14;53.35;;;33.97;;
29370;SDS011;16357;52.188;7.838;2024-03-06T01:18:41;51.03;;;34.13;;
29370;SDS011;16357;52.188;7.838;2024-03-06T01:21:08;46.40;;;32.58;;
29370;SDS011;16357;52.188;7.838;2024-03-06T01:23:34;49.40;;;32.60;;
29370;SDS011;16357;52.188;7.838;2024-03-06T01:26:00;44.85;;;31.33;;
29370;SDS011;16357;52.188;7.838;2024-03-06T01:28:27;45.42;;;31.48;;
29370;SDS011;16357;52.188;7.838;2024-03-06T01:30:54;44.45;;;30.15;;
29370;SDS011;16357;52.188;7.838;2024-03-06T01:33:20;47.63;;;31.73;;
29370;SDS011;16357;52.188;7.838;2024-03-06T01:35:48;44.97;;;30.90;;
29370;SDS011;16357;52.188;7.838;2024-03-06T01:38:14;43.28;;;29.35;;
29370;SDS011;16357;52.188;7.838;2024-03-06T01:40:42;41.25;;;28.55;;
29370;SDS011;16357;52.188;7.838;2024-03-06T01:43:17;40.38;;;27.20;;
29370;SDS011;16357;52.188;7.838;2024-03-06T01:45:45;43.08;;;27.77;;
29370;SDS011;16357;52.188;7.838;2024-03-06T01:48:13;38.97;;;25.33;;
29370;SDS011;16357;52.188;7.838;2024-03-06T01:50:40;40.60;;;25.52;;
29370;SDS011;16357;52.188;7.838;2024-03-06T01:53:07;33.92;;;24.02;;
29370;SDS011;16357;52.188;7.838;2024-03-06T01:55:35;34.15;;;23.55;;
29370;SDS011;16357;52.188;7.838;2024-03-06T01:58:03;35.17;;;23.70;;
29370;SDS011;16357;52.188;7.838;2024-03-06T02:00:29;31.90;;;23.15;;
29370;SDS011;16357;52.188;7.838;2024-03-06T02:02:56;36.67;;;24.27;;
29370;SDS011;16357;52.188;7.838;2024-03-06T02:05:22;32.80;;;23.35;;
29370;SDS011;16357;52.188;7.838;2024-03-06T02:07:49;35.35;;;23.52;;
29370;SDS011;16357;52.188;7.838;2024-03-06T02:10:16;37.88;;;23.80;;
29370;SDS011;16357;52.188;7.838;2024-03-06T02:12:42;34.85;;;24.00;;
29370;SDS011;16357;52.188;7.838;2024-03-06T02:15:09;34.33;;;23.88;;
29370;SDS011;16357;52.188;7.838;2024-03-06T02:17:38;38.45;;;24.17;;
29370;SDS011;16357;52.188;7.838;2024-03-06T02:20:06;35.13;;;23.38;;
29370;SDS011;16357;52.188;7.838;2024-03-06T02:22:39;38.67;;;24.33;;
29370;SDS011;16357;52.188;7.838;2024-03-06T02:25:06;38.63;;;24.20;;
29370;SDS011;16357;52.188;7.838;2024-03-06T02:27:33;42.42;;;24.90;;
29370;SDS011;16357;52.188;7.838;2024-03-06T02:29:59;40.55;;;24.60;;
29370;SDS011;16357;52.188;7.838;2024-03-06T02:32:26;37.95;;;23.25;;
29370;SDS011;16357;52.188;7.838;2024-03-06T02:34:52;39.95;;;24.70;;
29370;SDS011;16357;52.188;7.838;2024-03-06T02:37:18;36.40;;;23.73;;
29370;SDS011;16357;52.188;7.838;2024-03-06T02:39:45;41.10;;;25.48;;
29370;SDS011;16357;52.188;7.838;2024-03-06T02:42:12;38.85;;;25.35;;
29370;SDS011;16357;52.188;7.838;2024-03-06T02:44:38;40.80;;;25.83;;
29370;SDS011;16357;52.188;7.838;2024-03-06T02:47:05;42.30;;;25.30;;
29370;SDS011;16357;52.188;7.838;2024-03-06T02:49:31;43.25;;;25.92;;
29370;SDS011;16357;52.188;7.838;2024-03-06T02:51:58;41.00;;;25.13;;
29370;SDS011;16357;52.188;7.838;2024-03-06T02:54:27;42.30;;;27.00;;
29370;SDS011;16357;52.188;7.838;2024-03-06T02:56:53;37.45;;;24.92;;
29370;SDS011;16357;52.188;7.838;2024-03-06T02:59:20;45.38;;;26.92;;
29370;SDS011;16357;52.188;7.838;2024-03-06T03:01:47;44.42;;;27.63;;
29370;SDS011;16357;52.188;7.838;2024-03-06T03:04:14;44.28;;;27.77;;
29370;SDS011;16357;52.188;7.838;2024-03-06T03:06:40;42.58;;;26.13;;
29370;SDS011;16357;52.188;7.838;2024-03-06T03:09:07;43.25;;;26.67;;
29370;SDS011;16357;52.188;7.838;2024-03-06T03:11:37;41.60;;;26.85;;
29370;SDS011;16357;52.188;7.838;2024-03-06T03:14:04;45.53;;;27.58;;
29370;SDS011;16357;52.188;7.838;2024-03-06T03:16:30;41.60;;;28.25;;
29370;SDS011;16357;52.188;7.838;2024-03-06T03:18:59;43.25;;;27.70;;
29370;SDS011;16357;52.188;7.838;2024-03-06T03:21:25;45.58;;;28.23;;
29370;SDS011;16357;52.188;7.838;2024-03-06T03:23:51;55.10;;;31.23;;
29370;SDS011;16357;52.188;7.838;2024-03-06T03:26:18;56.47;;;32.55;;
29370;SDS011;16357;52.188;7.838;2024-03-06T03:28:45;56.22;;;33.30;;
29370;SDS011;16357;52.188;7.838;2024-03-06T03:31:11;64.68;;;34.00;;
29370;SDS011;16357;52.188;7.838;2024-03-06T03:33:41;58.10;;;35.58;;
29370;SDS011;16357;52.188;7.838;2024-03-06T03:36:08;61.97;;;36.45;;
29370;SDS011;16357;52.188;7.838;2024-03-06T03:38:36;68.20;;;35.97;;
29370;SDS011;16357;52.188;7.838;2024-03-06T03:41:08;61.83;;;37.30;;
29370;SDS011;16357;52.188;7.838;2024-03-06T03:43:43;67.53;;;39.78;;
29370;SDS011;16357;52.188;7.838;2024-03-06T03:46:09;69.40;;;37.30;;
29370;SDS011;16357;52.188;7.838;2024-03-06T03:48:36;57.85;;;35.67;;
29370;SDS011;16357;52.188;7.838;2024-03-06T03:51:06;56.50;;;34.22;;
29370;SDS011;16357;52.188;7.838;2024-03-06T03:53:34;57.03;;;35.38;;
29370;SDS011;16357;52.188;7.838;2024-03-06T03:56:01;64.55;;;36.38;;
29370;SDS011;16357;52.188;7.838;2024-03-06T03:58:29;61.65;;;37.13;;
29370;SDS011;16357;52.188;7.838;2024-03-06T04:00:56;59.75;;;35.35;;
29370;SDS011;16357;52.188;7.838;2024-03-06T04:03:22;62.38;;;34.88;;
29370;SDS011;16357;52.188;7.838;2024-03-06T04:05:50;57.88;;;34.97;;
29370;SDS011;16357;52.188;7.838;2024-03-06T04:08:17;57.60;;;34.00;;
29370;SDS011;16357;52.188;7.838;2024-03-06T04:10:43;53.70;;;33.97;;
29370;SDS011;16357;52.188;7.838;2024-03-06T04:13:14;55.78;;;34.35;;
29370;SDS011;16357;52.188;7.838;2024-03-06T04:15:42;54.25;;;33.22;;
29370;SDS011;16357;52.188;7.838;2024-03-06T04:18:08;56.22;;;33.65;;
29370;SDS011;16357;52.188;7.838;2024-03-06T04:20:35;55.65;;;33.58;;
29370;SDS011;16357;52.188;7.838;2024-03-06T04:23:01;55.25;;;33.22;;
29370;SDS011;16357;52.188;7.838;2024-03-06T04:25:28;51.83;;;31.60;;
29370;SDS011;16357;52.188;7.838;2024-03-06T04:27:55;55.72;;;33.53;;
29370;SDS011;16357;52.188;7.838;2024-03-06T04:30:21;60.10;;;35.63;;
29370;SDS011;16357;52.188;7.838;2024-03-06T04:32:48;59.22;;;33.20;;
29370;SDS011;16357;52.188;7.838;2024-03-06T04:35:15;60.40;;;34.85;;
29370;SDS011;16357;52.188;7.838;2024-03-06T04:37:42;61.67;;;34.10;;
29370;SDS011;16357;52.188;7.838;2024-03-06T04:40:10;65.97;;;36.45;;
29370;SDS011;16357;52.188;7.838;2024-03-06T04:42:36;64.70;;;35.17;;
29370;SDS011;16357;52.188;7.838;2024-03-06T04:45:04;63.67;;;36.22;;
29370;SDS011;16357;52.188;7.838;2024-03-06T04:47:51;68.75;;;36.30;;
29370;SDS011;16357;52.188;7.838;2024-03-06T04:50:18;69.75;;;37.97;;
29370;SDS011;16357;52.188;7.838;2024-03-06T04:52:45;71.55;;;37.55;;
29370;SDS011;16357;52.188;7.838;2024-03-06T04:55:11;63.85;;;36.13;;
29370;SDS011;16357;52.188;7.838;2024-03-06T04:57:39;61.38;;;35.70;;
29370;SDS011;16357;52.188;7.838;2024-03-06T05:00:10;59.08;;;34.30;;
29370;SDS011;16357;52.188;7.838;2024-03-06T05:02:37;61.22;;;33.15;;
29370;SDS011;16357;52.188;7.838;2024-03-06T05:05:21;53.95;;;33.22;;
29370;SDS011;16357;52.188;7.838;2024-03-06T05:08:06;58.72;;;31.55;;
29370;SDS011;16357;52.188;7.838;2024-03-06T05:10:50;60.08;;;31.92;;
29370;SDS011;16357;52.188;7.838;2024-03-06T05:13:34;55.33;;;31.80;;
29370;SDS011;16357;52.188;7.838;2024-03-06T05:16:18;51.83;;;29.40;;
29370;SDS011;16357;52.188;7.838;2024-03-06T05:19:03;56.63;;;31.15;;
29370;SDS011;16357;52.188;7.838;2024-03-06T05:21:48;49.05;;;28.90;;
29370;SDS011;16357;52.188;7.838;2024-03-06T05:24:32;48.38;;;28.65;;
29370;SDS011;16357;52.188;7.838;2024-03-06T05:27:16;47.78;;;27.75;;
29370;SDS011;16357;52.188;7.838;2024-03-06T05:30:01;52.50;;;28.55;;
29370;SDS011;16357;52.188;7.838;2024-03-06T05:32:49;46.40;;;27.83;;
29370;SDS011;16357;52.188;7.838;2024-03-06T05:35:33;52.13;;;26.17;;
29370;SDS011;16357;52.188;7.838;2024-03-06T05:38:17;51.72;;;26.80;;
29370;SDS011;16357;52.188;7.838;2024-03-06T05:41:02;50.17;;;27.20;;
29370;SDS011;16357;52.188;7.838;2024-03-06T05:43:46;50.28;;;26.25;;
29370;SDS011;16357;52.188;7.838;2024-03-06T05:46:31;49.97;;;26.05;;
29370;SDS011;16357;52.188;7.838;2024-03-06T05:49:15;55.60;;;26.75;;
29370;SDS011;16357;52.188;7.838;2024-03-06T05:51:59;51.70;;;26.65;;
29370;SDS011;16357;52.188;7.838;2024-03-06T05:54:43;49.22;;;25.90;;
29370;SDS011;16357;52.188;7.838;2024-03-06T05:57:27;43.17;;;24.80;;
29370;SDS011;16357;52.188;7.838;2024-03-06T06:00:13;59.00;;;26.75;;
29370;SDS011;16357;52.188;7.838;2024-03-06T06:02:40;54.97;;;28.00;;
29370;SDS011;16357;52.188;7.838;2024-03-06T06:05:06;53.42;;;28.75;;
29370;SDS011;16357;52.188;7.838;2024-03-06T06:07:49;57.50;;;28.60;;
29370;SDS011;16357;52.188;7.838;2024-03-06T06:10:16;52.92;;;26.33;;
29370;SDS011;16357;52.188;7.838;2024-03-06T06:12:47;54.88;;;28.23;;
29370;SDS011;16357;52.188;7.838;2024-03-06T06:15:13;54.17;;;27.52;;
29370;SDS011;16357;52.188;7.838;2024-03-06T06:17:40;54.25;;;28.00;;
29370;SDS011;16357;52.188;7.838;2024-03-06T06:20:09;52.95;;;27.40;;
29370;SDS011;16357;52.188;7.838;2024-03-06T06:22:49;51.55;;;26.80;;
29370;SDS011;16357;52.188;7.838;2024-03-06T06:25:16;51.60;;;25.73;;
29370;SDS011;16357;52.188;7.838;2024-03-06T06:27:42;41.03;;;24.02;;
29370;SDS011;16357;52.188;7.838;2024-03-06T06:30:09;45.42;;;25.05;;
29370;SDS011;16357;52.188;7.838;2024-03-06T06:32:39;45.13;;;25.58;;
29370;SDS011;16357;52.188;7.838;2024-03-06T06:35:08;46.00;;;25.48;;
29370;SDS011;16357;52.188;7.838;2024-03-06T06:37:36;47.10;;;25.42;;
29370;SDS011;16357;52.188;7.838;2024-03-06T06:40:02;44.28;;;25.15;;
29370;SDS011;16357;52.188;7.838;2024-03-06T06:42:36;51.85;;;25.35;;
29370;SDS011;16357;52.188;7.838;2024-03-06T06:45:03;44.22;;;25.33;;
29370;SDS011;16357;52.188;7.838;2024-03-06T06:47:32;47.78;;;26.05;;
29370;SDS011;16357;52.188;7.838;2024-03-06T06:49:59;51.00;;;27.60;;
29370;SDS011;16357;52.188;7.838;2024-03-06T06:52:25;44.42;;;26.70;;
29370;SDS011;16357;52.188;7.838;2024-03-06T06:54:54;63.95;;;28.92;;
29370;SDS011;16357;52.188;7.838;2024-03-06T06:57:20;58.85;;;29.33;;
29370;SDS011;16357;52.188;7.838;2024-03-06T06:59:46;57.75;;;28.23;;
29370;SDS011;16357;52.188;7.838;2024-03-06T07:02:13;51.25;;;28.30;;
29370;SDS011;16357;52.188;7.838;2024-03-06T07:04:39;52.90;;;28.67;;
29370;SDS011;16357;52.188;7.838;2024-03-06T07:07:06;48.67;;;28.98;;
29370;SDS011;16357;52.188;7.838;2024-03-06T07:09:32;54.65;;;28.58;;
29370;SDS011;16357;52.188;7.838;2024-03-06T07:12:00;45.92;;;27.65;;
29370;SDS011;16357;52.188;7.838;2024-03-06T07:14:26;58.08;;;30.08;;
29370;SDS011;16357;52.188;7.838;2024-03-06T07:16:53;56.33;;;29.50;;
29370;SDS011;16357;52.188;7.838;2024-03-06T07:19:20;59.80;;;30.27;;
29370;SDS011;16357;52.188;7.838;2024-03-06T07:21:46;63.97;;;30.85;;
29370;SDS011;16357;52.188;7.838;2024-03-06T07:24:13;58.58;;;29.63;;
29370;SDS011;16357;52.188;7.838;2024-03-06T07:26:40;60.90;;;31.85;;
29370;SDS011;16357;52.188;7.838;2024-03-06T07:29:06;54.58;;;30.20;;
29370;SDS011;16357;52.188;7.838;2024-03-06T07:31:39;53.60;;;29.48;;
29370;SDS011;16357;52.188;7.838;2024-03-06T07:34:10;63.10;;;32.15;;
29370;SDS011;16357;52.188;7.838;2024-03-06T07:36:37;66.10;;;32.38;;
29370;SDS011;16357;52.188;7.838;2024-03-06T07:39:03;62.20;;;32.50;;
29370;SDS011;16357;52.188;7.838;2024-03-06T07:41:30;61.65;;;32.03;;
29370;SDS011;16357;52.188;7.838;2024-03-06T07:43:59;61.50;;;31.48;;
29370;SDS011;16357;52.188;7.838;2024-03-06T07:46:29;58.67;;;32.03;;
29370;SDS011;16357;52.188;7.838;2024-03-06T07:48:55;60.85;;;34.00;;
29370;SDS011;16357;52.188;7.838;2024-03-06T07:51:22;58.20;;;31.67;;
29370;SDS011;16357;52.188;7.838;2024-03-06T07:53:49;55.85;;;31.42;;
29370;SDS011;16357;52.188;7.838;2024-03-06T07:56:17;55.88;;;30.10;;
29370;SDS011;16357;52.188;7.838;2024-03-06T07:58:43;56.78;;;29.13;;
29370;SDS011;16357;52.188;7.838;2024-03-06T08:01:10;60.90;;;32.45;;
29370;SDS011;16357;52.188;7.838;2024-03-06T08:03:38;57.85;;;31.67;;
29370;SDS011;16357;52.188;7.838;2024-03-06T08:06:05;51.58;;;29.80;;
29370;SDS011;16357;52.188;7.838;2024-03-06T08:08:32;55.75;;;29.42;;
29370;SDS011;16357;52.188;7.838;2024-03-06T08:10:59;64.57;;;32.50;;
29370;SDS011;16357;52.188;7.838;2024-03-06T08:13:25;54.50;;;29.85;;
29370;SDS011;16357;52.188;7.838;2024-03-06T08:15:52;61.78;;;31.20;;
29370;SDS011;16357;52.188;7.838;2024-03-06T08:18:19;60.03;;;30.17;;
29370;SDS011;16357;52.188;7.838;2024-03-06T08:20:45;61.30;;;32.03;;
29370;SDS011;16357;52.188;7.838;2024-03-06T08:23:12;58.13;;;30.95;;
29370;SDS011;16357;52.188;7.838;2024-03-06T08:25:39;50.22;;;28.13;;
29370;SDS011;16357;52.188;7.838;2024-03-06T08:28:06;58.38;;;30.83;;
29370;SDS011;16357;52.188;7.838;2024-03-06T08:30:32;52.10;;;27.95;;
29370;SDS011;16357;52.188;7.838;2024-03-06T08:32:59;51.55;;;28.23;;
29370;SDS011;16357;52.188;7.838;2024-03-06T08:35:27;50.38;;;28.15;;
29370;SDS011;16357;52.188;7.838;2024-03-06T08:37:53;50.63;;;27.58;;
29370;SDS011;16357;52.188;7.838;2024-03-06T08:40:20;53.75;;;27.45;;
29370;SDS011;16357;52.188;7.838;2024-03-06T08:42:47;51.92;;;27.73;;
29370;SDS011;16357;52.188;7.838;2024-03-06T08:45:15;49.72;;;27.67;;
29370;SDS011;16357;52.188;7.838;2024-03-06T08:47:44;51.60;;;26.17;;
29370;SDS011;16357;52.188;7.838;2024-03-06T08:50:12;53.17;;;27.92;;
29370;SDS011;16357;52.188;7.838;2024-03-06T08:52:39;51.92;;;26.83;;
29370;SDS011;16357;52.188;7.838;2024-03-06T08:55:07;54.03;;;27.13;;
29370;SDS011;16357;52.188;7.838;2024-03-06T08:57:35;48.92;;;26.48;;
29370;SDS011;16357;52.188;7.838;2024-03-06T09:00:03;49.80;;;25.30;;
29370;SDS011;16357;52.188;7.838;2024-03-06T09:02:30;48.22;;;25.95;;
29370;SDS011;16357;52.188;7.838;2024-03-06T09:04:57;47.78;;;26.25;;
29370;SDS011;16357;52.188;7.838;2024-03-06T09:07:23;48.38;;;25.35;;
29370;SDS011;16357;52.188;7.838;2024-03-06T09:09:50;47.28;;;25.67;;
29370;SDS011;16357;52.188;7.838;2024-03-06T09:12:20;47.05;;;26.48;;
29370;SDS011;16357;52.188;7.838;2024-03-06T09:14:46;47.53;;;25.98;;
29370;SDS011;16357;52.188;7.838;2024-03-06T09:17:13;47.40;;;25.40;;
29370;SDS011;16357;52.188;7.838;2024-03-06T09:19:41;48.28;;;26.33;;
29370;SDS011;16357;52.188;7.838;2024-03-06T09:22:25;49.30;;;26.13;;
29370;SDS011;16357;52.188;7.838;2024-03-06T09:24:51;49.60;;;26.48;;
29370;SDS011;16357;52.188;7.838;2024-03-06T09:27:18;51.85;;;25.92;;
29370;SDS011;16357;52.188;7.838;2024-03-06T09:29:44;43.63;;;25.67;;
29370;SDS011;16357;52.188;7.838;2024-03-06T09:32:11;43.85;;;25.48;;
29370;SDS011;16357;52.188;7.838;2024-03-06T09:34:44;41.15;;;24.40;;
29370;SDS011;16357;52.188;7.838;2024-03-06T09:37:11;45.53;;;25.40;;
29370;SDS011;16357;52.188;7.838;2024-03-06T09:39:37;47.00;;;27.35;;
29370;SDS011;16357;52.188;7.838;2024-03-06T09:42:04;43.20;;;25.55;;
29370;SDS011;16357;52.188;7.838;2024-03-06T09:44:31;43.63;;;25.50;;
29370;SDS011;16357;52.188;7.838;2024-03-06T09:46:58;45.47;;;26.63;;
29370;SDS011;16357;52.188;7.838;2024-03-06T09:49:30;39.60;;;25.77;;
29370;SDS011;16357;52.188;7.838;2024-03-06T09:51:57;43.97;;;25.77;;
29370;SDS011;16357;52.188;7.838;2024-03-06T09:54:25;46.97;;;26.25;;
29370;SDS011;16357;52.188;7.838;2024-03-06T09:56:53;43.88;;;25.60;;
29370;SDS011;16357;52.188;7.838;2024-03-06T09:59:22;43.92;;;25.30;;
29370;SDS011;16357;52.188;7.838;2024-03-06T10:01:55;43.40;;;25.25;;
29370;SDS011;16357;52.188;7.838;2024-03-06T10:04:34;41.72;;;25.52;;
29370;SDS011;16357;52.188;7.838;2024-03-06T10:07:03;44.65;;;25.88;;
29370;SDS011;16357;52.188;7.838;2024-03-06T10:09:30;46.85;;;25.55;;
29370;SDS011;16357;52.188;7.838;2024-03-06T10:12:00;39.42;;;25.33;;
29370;SDS011;16357;52.188;7.838;2024-03-06T10:14:32;43.50;;;25.85;;
29370;SDS011;16357;52.188;7.838;2024-03-06T10:16:59;45.17;;;26.13;;
29370;SDS011;16357;52.188;7.838;2024-03-06T10:19:27;45.95;;;27.40;;
29370;SDS011;16357;52.188;7.838;2024-03-06T10:21:55;40.35;;;25.80;;
29370;SDS011;16357;52.188;7.838;2024-03-06T10:24:24;44.42;;;26.58;;
29370;SDS011;16357;52.188;7.838;2024-03-06T10:26:52;42.95;;;25.02;;
29370;SDS011;16357;52.188;7.838;2024-03-06T10:29:22;47.15;;;27.17;;
29370;SDS011;16357;52.188;7.838;2024-03-06T10:31:58;46.28;;;27.05;;
29370;SDS011;16357;52.188;7.838;2024-03-06T10:34:28;42.55;;;26.25;;
29370;SDS011;16357;52.188;7.838;2024-03-06T10:36:58;48.25;;;26.23;;
29370;SDS011;16357;52.188;7.838;2024-03-06T10:39:27;45.40;;;26.67;;
29370;SDS011;16357;52.188;7.838;2024-03-06T10:41:56;40.78;;;26.67;;
29370;SDS011;16357;52.188;7.838;2024-03-06T10:44:24;40.00;;;25.45;;
29370;SDS011;16357;52.188;7.838;2024-03-06T10:46:58;42.03;;;25.40;;
29370;SDS011;16357;52.188;7.838;2024-03-06T10:49:27;38.60;;;25.42;;
29370;SDS011;16357;52.188;7.838;2024-03-06T10:52:02;40.53;;;25.42;;
29370;SDS011;16357;52.188;7.838;2024-03-06T10:54:34;44.63;;;25.88;;
29370;SDS011;16357;52.188;7.838;2024-03-06T10:57:03;40.63;;;25.10;;
29370;SDS011;16357;52.188;7.838;2024-03-06T10:59:30;43.13;;;25.90;;
29370;SDS011;16357;52.188;7.838;2024-03-06T11:01:57;41.78;;;26.77;;
29370;SDS011;16357;52.188;7.838;2024-03-06T11:04:31;43.30;;;25.95;;
29370;SDS011;16357;52.188;7.838;2024-03-06T11:07:01;40.85;;;25.73;;
29370;SDS011;16357;52.188;7.838;2024-03-06T11:09:32;44.35;;;25.70;;
29370;SDS011;16357;52.188;7.838;2024-03-06T11:12:02;39.53;;;26.23;;
29370;SDS011;16357;52.188;7.838;2024-03-06T11:14:30;46.60;;;27.77;;
29370;SDS011;16357;52.188;7.838;2024-03-06T11:28:16;44.97;;;25.73;;
29370;SDS011;16357;52.188;7.838;2024-03-06T11:30:44;41.90;;;25.85;;
29370;SDS011;16357;52.188;7.838;2024-03-06T11:33:14;43.17;;;26.00;;
29370;SDS011;16357;52.188;7.838;2024-03-06T11:35:43;42.90;;;26.15;;
29370;SDS011;16357;52.188;7.838;2024-03-06T11:38:30;41.17;;;24.95;;
29370;SDS011;16357;52.188;7.838;2024-03-06T11:40:57;40.28;;;25.02;;
29370;SDS011;16357;52.188;7.838;2024-03-06T11:43:24;43.42;;;27.23;;
29370;SDS011;16357;52.188;7.838;2024-03-06T11:45:53;43.80;;;26.73;;
29370;SDS011;16357;52.188;7.838;2024-03-06T11:48:19;45.47;;;27.20;;
29370;SDS011;16357;52.188;7.838;2024-03-06T11:50:48;45.42;;;27.48;;
29370;SDS011;16357;52.188;7.838;2024-03-06T11:53:14;45.17;;;28.05;;
29370;SDS011;16357;52.188;7.838;2024-03-06T11:55:42;49.05;;;28.27;;
29370;SDS011;16357;52.188;7.838;2024-03-06T11:58:09;49.08;;;27.70;;
29370;SDS011;16357;52.188;7.838;2024-03-06T12:00:38;48.10;;;27.98;;
29370;SDS011;16357;52.188;7.838;2024-03-06T12:03:04;42.47;;;26.33;;
29370;SDS011;16357;52.188;7.838;2024-03-06T12:05:32;51.08;;;29.10;;
29370;SDS011;16357;52.188;7.838;2024-03-06T12:07:58;50.33;;;29.33;;
29370;SDS011;16357;52.188;7.838;2024-03-06T12:10:25;51.08;;;30.98;;
29370;SDS011;16357;52.188;7.838;2024-03-06T12:12:51;48.20;;;28.58;;
29370;SDS011;16357;52.188;7.838;2024-03-06T12:15:18;46.78;;;27.98;;
29370;SDS011;16357;52.188;7.838;2024-03-06T12:17:45;46.35;;;29.20;;
29370;SDS011;16357;52.188;7.838;2024-03-06T12:20:14;49.17;;;29.75;;
29370;SDS011;16357;52.188;7.838;2024-03-06T12:22:52;48.65;;;30.52;;
29370;SDS011;16357;52.188;7.838;2024-03-06T12:25:20;51.03;;;30.05;;
29370;SDS011;16357;52.188;7.838;2024-03-06T12:27:49;48.05;;;29.88;;
29370;SDS011;16357;52.188;7.838;2024-03-06T12:30:16;50.35;;;30.67;;
29370;SDS011;16357;52.188;7.838;2024-03-06T12:32:44;48.70;;;28.80;;
29370;SDS011;16357;52.188;7.838;2024-03-06T12:35:11;48.95;;;28.75;;
29370;SDS011;16357;52.188;7.838;2024-03-06T12:37:38;45.10;;;28.60;;
29370;SDS011;16357;52.188;7.838;2024-03-06T12:40:04;47.70;;;27.80;;
29370;SDS011;16357;52.188;7.838;2024-03-06T12:42:33;42.28;;;28.10;;
29370;SDS011;16357;52.188;7.838;2024-03-06T12:44:59;43.15;;;27.95;;
29370;SDS011;16357;52.188;7.838;2024-03-06T12:47:26;45.00;;;27.30;;
29370;SDS011;16357;52.188;7.838;2024-03-06T12:49:53;43.53;;;26.63;;
29370;SDS011;16357;52.188;7.838;2024-03-06T12:52:20;40.83;;;26.85;;
29370;SDS011;16357;52.188;7.838;2024-03-06T12:54:46;45.33;;;27.73;;
29370;SDS011;16357;52.188;7.838;2024-03-06T12:57:13;40.55;;;26.85;;
29370;SDS011;16357;52.188;7.838;2024-03-06T12:59:39;44.03;;;26.98;;
29370;SDS011;16357;52.188;7.838;2024-03-06T13:02:06;45.63;;;27.55;;
29370;SDS011;16357;52.188;7.838;2024-03-06T13:04:33;44.33;;;27.08;;
29370;SDS011;16357;52.188;7.838;2024-03-06T13:06:59;44.38;;;27.33;;
29370;SDS011;16357;52.188;7.838;2024-03-06T13:09:26;37.25;;;24.92;;
29370;SDS011;16357;52.188;7.838;2024-03-06T13:11:52;39.60;;;25.08;;
29370;SDS011;16357;52.188;7.838;2024-03-06T13:14:20;39.75;;;25.73;;
29370;SDS011;16357;52.188;7.838;2024-03-06T13:16:47;41.33;;;25.83;;
29370;SDS011;16357;52.188;7.838;2024-03-06T13:19:13;39.97;;;26.42;;
29370;SDS011;16357;52.188;7.838;2024-03-06T13:21:40;38.67;;;24.75;;
29370;SDS011;16357;52.188;7.838;2024-03-06T13:24:06;39.95;;;24.48;;
29370;SDS011;16357;52.188;7.838;2024-03-06T13:26:33;41.55;;;24.27;;
29370;SDS011;16357;52.188;7.838;2024-03-06T13:29:00;39.38;;;24.10;;
29370;SDS011;16357;52.188;7.838;2024-03-06T13:31:26;34.72;;;22.75;;
29370;SDS011;16357;52.188;7.838;2024-03-06T13:33:53;36.15;;;22.98;;
29370;SDS011;16357;52.188;7.838;2024-03-06T13:36:20;37.15;;;24.45;;
29370;SDS011;16357;52.188;7.838;2024-03-06T13:38:48;37.40;;;25.67;;
29370;SDS011;16357;52.188;7.838;2024-03-06T13:41:15;40.63;;;25.35;;
29370;SDS011;16357;52.188;7.838;2024-03-06T13:43:42;43.00;;;26.60;;
29370;SDS011;16357;52.188;7.838;2024-03-06T13:46:09;43.92;;;27.77;;
29370;SDS011;16357;52.188;7.838;2024-03-06T13:48:35;46.22;;;27.67;;
29370;SDS011;16357;52.188;7.838;2024-03-06T13:51:02;43.17;;;27.55;;
29370;SDS011;16357;52.188;7.838;2024-03-06T13:53:30;45.80;;;29.42;;
29370;SDS011;16357;52.188;7.838;2024-03-06T13:55:57;49.78;;;29.60;;
29370;SDS011;16357;52.188;7.838;2024-03-06T13:58:24;52.47;;;31.95;;
29370;SDS011;16357;52.188;7.838;2024-03-06T14:00:51;49.28;;;30.92;;
29370;SDS011;16357;52.188;7.838;2024-03-06T14:03:18;52.80;;;31.48;;
29370;SDS011;16357;52.188;7.838;2024-03-06T14:05:44;49.90;;;31.90;;
29370;SDS011;16357;52.188;7.838;2024-03-06T14:08:11;50.17;;;30.92;;
29370;SDS011;16357;52.188;7.838;2024-03-06T14:10:39;50.10;;;31.45;;
29370;SDS011;16357;52.188;7.838;2024-03-06T14:13:06;49.63;;;30.25;;
29370;SDS011;16357;52.188;7.838;2024-03-06T14:15:35;48.67;;;30.35;;
29370;SDS011;16357;52.188;7.838;2024-03-06T14:18:04;50.47;;;30.95;;
29370;SDS011;16357;52.188;7.838;2024-03-06T14:20:32;49.78;;;31.25;;
29370;SDS011;16357;52.188;7.838;2024-03-06T14:22:59;47.08;;;30.80;;
29370;SDS011;16357;52.188;7.838;2024-03-06T14:25:25;51.90;;;30.60;;
29370;SDS011;16357;52.188;7.838;2024-03-06T14:27:52;49.47;;;31.23;;
29370;SDS011;16357;52.188;7.838;2024-03-06T14:30:18;52.15;;;31.70;;
29370;SDS011;16357;52.188;7.838;2024-03-06T14:32:46;47.80;;;30.10;;
29370;SDS011;16357;52.188;7.838;2024-03-06T14:35:12;46.15;;;30.95;;
29370;SDS011;16357;52.188;7.838;2024-03-06T14:37:40;51.10;;;31.05;;
29370;SDS011;16357;52.188;7.838;2024-03-06T14:40:06;48.30;;;30.20;;